sensor_id;sensor_type;location;lat;lon;timestamp;temperature;humidity
19561;DHT22;9927;47.792;10.616;2022-11-21T04:01:44;4.70;99.90
19561;DHT22;9927;47.792;10.616;2022-11-21T04:04:12;4.60;99.90
19561;DHT22;9927;47.792;10.616;2022-11-21T04:06:39;4.50;99.90
19561;DHT22;9927;47.792;10.616;2022-11-21T04:09:07;4.50;99.90
19561;DHT22;9927;47.792;10.616;2022-11-21T04:11:34;4.50;99.90
19561;DHT22;9927;47.792;10.616;2022-11-21T04:14:01;4.50;99.90
19561;DHT22;9927;47.792;10.616;2022-11-21T04:16:28;4.50;99.90
19561;DHT22;9927;47.792;10.616;2022-11-21T04:18:55;4.50;99.90
19561;DHT22;9927;47.792;10.616;2022-11-21T04:21:23;4.70;99.90
19561;DHT22;9927;47.792;10.616;2022-11-21T04:23:50;4.70;99.90
19561;DHT22;9927;47.792;10.616;2022-11-21T04:26:17;4.80;99.90
19561;DHT22;9927;47.792;10.616;2022-11-21T04:28:44;4.70;99.90
19561;DHT22;9927;47.792;10.616;2022-11-21T04:31:12;4.90;99.90
19561;DHT22;9927;47.792;10.616;2022-11-21T04:33:39;4.80;99.90
19561;DHT22;9927;47.792;10.616;2022-11-21T04:36:07;4.80;99.90
19561;DHT22;9927;47.792;10.616;2022-11-21T04:38:35;4.90;99.90
19561;DHT22;9927;47.792;10.616;2022-11-21T04:41:02;4.90;99.90
19561;DHT22;9927;47.792;10.616;2022-11-21T04:43:30;4.90;99.90
19561;DHT22;9927;47.792;10.616;2022-11-21T04:45:57;4.80;99.90
19561;DHT22;9927;47.792;10.616;2022-11-21T04:48:25;4.80;99.90
19561;DHT22;9927;47.792;10.616;2022-11-21T04:50:52;5.00;99.90
19561;DHT22;9927;47.792;10.616;2022-11-21T04:53:19;5.00;99.90
19561;DHT22;9927;47.792;10.616;2022-11-21T04:55:46;5.00;99.90
19561;DHT22;9927;47.792;10.616;2022-11-21T04:58:13;4.90;99.90
19561;DHT22;9927;47.792;10.616;2022-11-21T05:00:40;4.90;99.90
19561;DHT22;9927;47.792;10.616;2022-11-21T05:03:08;4.90;99.90
19561;DHT22;9927;47.792;10.616;2022-11-21T05:05:35;4.90;99.90
19561;DHT22;9927;47.792;10.616;2022-11-21T05:08:03;4.90;99.90
19561;DHT22;9927;47.792;10.616;2022-11-21T05:10:30;4.80;99.90
19561;DHT22;9927;47.792;10.616;2022-11-21T05:13:17;4.70;99.90
19561;DHT22;9927;47.792;10.616;2022-11-21T05:15:48;4.70;99.90
19561;DHT22;9927;47.792;10.616;2022-11-21T05:18:18;4.60;99.90
19561;DHT22;9927;47.792;10.616;2022-11-21T05:20:45;4.70;99.90
19561;DHT22;9927;47.792;10.616;2022-11-21T05:23:13;4.70;99.90
19561;DHT22;9927;47.792;10.616;2022-11-21T05:25:40;4.60;99.90
19561;DHT22;9927;47.792;10.616;2022-11-21T05:28:08;4.60;99.90
19561;DHT22;9927;47.792;10.616;2022-11-21T05:30:35;4.40;99.90
19561;DHT22;9927;47.792;10.616;2022-11-21T05:33:04;4.40;99.90
19561;DHT22;9927;47.792;10.616;2022-11-21T05:35:31;4.30;99.90
19561;DHT22;9927;47.792;10.616;2022-11-21T05:37:58;4.30;99.90
19561;DHT22;9927;47.792;10.616;2022-11-21T05:40:26;4.10;99.90
19561;DHT22;9927;47.792;10.616;2022-11-21T05:42:53;4.10;99.90
19561;DHT22;9927;47.792;10.616;2022-11-21T05:45:39;4.10;99.90
19561;DHT22;9927;47.792;10.616;2022-11-21T05:48:06;4.10;99.90
19561;DHT22;9927;47.792;10.616;2022-11-21T05:50:35;4.20;99.90
19561;DHT22;9927;47.792;10.616;2022-11-21T05:53:05;4.20;99.90
19561;DHT22;9927;47.792;10.616;2022-11-21T05:55:33;4.20;99.90
19561;DHT22;9927;47.792;10.616;2022-11-21T05:58:00;4.10;99.90
19561;DHT22;9927;47.792;10.616;2022-11-21T06:00:28;4.10;99.90
19561;DHT22;9927;47.792;10.616;2022-11-21T06:02:55;4.20;99.90
19561;DHT22;9927;47.792;10.616;2022-11-21T06:05:41;4.20;99.90
19561;DHT22;9927;47.792;10.616;2022-11-21T06:08:08;4.10;99.90
19561;DHT22;9927;47.792;10.616;2022-11-21T06:10:35;3.90;99.90
19561;DHT22;9927;47.792;10.616;2022-11-21T06:13:03;3.90;99.90
19561;DHT22;9927;47.792;10.616;2022-11-21T06:15:58;4.00;99.90
19561;DHT22;9927;47.792;10.616;2022-11-21T06:18:27;4.00;99.90
19561;DHT22;9927;47.792;10.616;2022-11-21T06:21:03;4.00;99.90
19561;DHT22;9927;47.792;10.616;2022-11-21T06:23:31;4.00;99.90
19561;DHT22;9927;47.792;10.616;2022-11-21T06:26:00;4.10;99.90
19561;DHT22;9927;47.792;10.616;2022-11-21T06:28:37;4.10;99.90
19561;DHT22;9927;47.792;10.616;2022-11-21T06:31:06;4.10;99.90
19561;DHT22;9927;47.792;10.616;2022-11-21T06:33:34;4.10;99.90
19561;DHT22;9927;47.792;10.616;2022-11-21T06:36:09;4.20;99.90
19561;DHT22;9927;47.792;10.616;2022-11-21T06:38:37;4.20;99.90
19561;DHT22;9927;47.792;10.616;2022-11-21T06:41:11;4.10;99.90
19561;DHT22;9927;47.792;10.616;2022-11-21T06:43:39;4.10;99.90
19561;DHT22;9927;47.792;10.616;2022-11-21T06:46:07;4.10;99.90
19561;DHT22;9927;47.792;10.616;2022-11-21T06:48:35;4.30;99.90
19561;DHT22;9927;47.792;10.616;2022-11-21T06:51:11;4.50;99.90
19561;DHT22;9927;47.792;10.616;2022-11-21T06:53:38;4.50;99.90
19561;DHT22;9927;47.792;10.616;2022-11-21T06:56:06;4.50;99.90
19561;DHT22;9927;47.792;10.616;2022-11-21T06:58:33;4.30;99.90
19561;DHT22;9927;47.792;10.616;2022-11-21T07:01:05;4.40;99.90
19561;DHT22;9927;47.792;10.616;2022-11-21T07:03:33;4.40;99.90
19561;DHT22;9927;47.792;10.616;2022-11-21T07:06:02;4.50;99.90
19561;DHT22;9927;47.792;10.616;2022-11-21T07:08:30;4.50;99.90
19561;DHT22;9927;47.792;10.616;2022-11-21T07:11:03;4.40;99.90
19561;DHT22;9927;47.792;10.616;2022-11-21T07:13:50;4.10;99.90
19561;DHT22;9927;47.792;10.616;2022-11-21T07:16:17;4.20;99.90
19561;DHT22;9927;47.792;10.616;2022-11-21T07:18:44;4.10;99.90
19561;DHT22;9927;47.792;10.616;2022-11-21T07:21:11;4.20;99.90
19561;DHT22;9927;47.792;10.616;2022-11-21T07:23:39;4.10;99.90
19561;DHT22;9927;47.792;10.616;2022-11-21T07:26:07;4.10;99.90
19561;DHT22;9927;47.792;10.616;2022-11-21T07:28:34;4.10;99.90
19561;DHT22;9927;47.792;10.616;2022-11-21T07:31:02;4.00;99.90
19561;DHT22;9927;47.792;10.616;2022-11-21T07:33:39;4.00;99.90
19561;DHT22;9927;47.792;10.616;2022-11-21T07:36:06;4.00;99.90
19561;DHT22;9927;47.792;10.616;2022-11-21T07:38:34;3.90;99.90
19561;DHT22;9927;47.792;10.616;2022-11-21T07:41:01;3.90;99.90
19561;DHT22;9927;47.792;10.616;2022-11-21T07:43:28;3.90;99.90
19561;DHT22;9927;47.792;10.616;2022-11-21T07:45:55;3.90;99.90
19561;DHT22;9927;47.792;10.616;2022-11-21T07:48:23;4.00;99.90
19561;DHT22;9927;47.792;10.616;2022-11-21T07:50:50;3.90;99.90
19561;DHT22;9927;47.792;10.616;2022-11-21T07:53:17;4.00;99.90
19561;DHT22;9927;47.792;10.616;2022-11-21T07:55:44;4.00;99.90
19561;DHT22;9927;47.792;10.616;2022-11-21T07:58:14;4.10;99.90
19561;DHT22;9927;47.792;10.616;2022-11-21T08:00:41;4.40;99.90
19561;DHT22;9927;47.792;10.616;2022-11-21T08:03:10;4.40;99.90
19561;DHT22;9927;47.792;10.616;2022-11-21T08:05:42;4.60;99.90
19561;DHT22;9927;47.792;10.616;2022-11-21T08:08:11;4.70;99.90
19561;DHT22;9927;47.792;10.616;2022-11-21T08:10:40;4.80;99.90
19561;DHT22;9927;47.792;10.616;2022-11-21T08:13:08;4.80;99.90
19561;DHT22;9927;47.792;10.616;2022-11-21T08:15:36;4.90;99.90
19561;DHT22;9927;47.792;10.616;2022-11-21T08:18:14;4.90;99.90
19561;DHT22;9927;47.792;10.616;2022-11-21T08:20:42;5.00;99.90
19561;DHT22;9927;47.792;10.616;2022-11-21T08:23:09;5.00;99.90
19561;DHT22;9927;47.792;10.616;2022-11-21T08:25:38;5.00;99.90
19561;DHT22;9927;47.792;10.616;2022-11-21T08:28:07;5.00;99.90
19561;DHT22;9927;47.792;10.616;2022-11-21T08:30:36;5.30;99.90
19561;DHT22;9927;47.792;10.616;2022-11-21T08:33:04;5.30;99.90
19561;DHT22;9927;47.792;10.616;2022-11-21T08:35:31;5.40;99.90
19561;DHT22;9927;47.792;10.616;2022-11-21T08:38:00;5.70;99.90
19561;DHT22;9927;47.792;10.616;2022-11-21T08:40:29;5.80;99.90
19561;DHT22;9927;47.792;10.616;2022-11-21T08:42:58;5.80;99.90
19561;DHT22;9927;47.792;10.616;2022-11-21T08:45:25;5.80;99.90
19561;DHT22;9927;47.792;10.616;2022-11-21T08:47:53;5.80;99.90
19561;DHT22;9927;47.792;10.616;2022-11-21T08:50:21;5.80;99.90
19561;DHT22;9927;47.792;10.616;2022-11-21T08:52:49;5.90;99.90
19561;DHT22;9927;47.792;10.616;2022-11-21T08:55:16;6.00;99.90
19561;DHT22;9927;47.792;10.616;2022-11-21T08:57:44;6.10;99.90
19561;DHT22;9927;47.792;10.616;2022-11-21T09:00:12;6.00;99.90
19561;DHT22;9927;47.792;10.616;2022-11-21T09:02:39;6.00;99.90
19561;DHT22;9927;47.792;10.616;2022-11-21T09:05:07;5.90;99.90
19561;DHT22;9927;47.792;10.616;2022-11-21T09:07:35;5.70;99.90
19561;DHT22;9927;47.792;10.616;2022-11-21T09:10:03;5.70;99.90
19561;DHT22;9927;47.792;10.616;2022-11-21T09:12:30;5.70;99.90
19561;DHT22;9927;47.792;10.616;2022-11-21T09:14:57;5.80;99.90
19561;DHT22;9927;47.792;10.616;2022-11-21T09:17:43;5.80;99.90
19561;DHT22;9927;47.792;10.616;2022-11-21T09:20:30;6.30;99.90
19561;DHT22;9927;47.792;10.616;2022-11-21T09:23:03;6.30;99.90
19561;DHT22;9927;47.792;10.616;2022-11-21T09:25:30;6.40;99.90
19561;DHT22;9927;47.792;10.616;2022-11-21T09:27:59;6.30;99.90
19561;DHT22;9927;47.792;10.616;2022-11-21T09:30:27;6.30;99.90
19561;DHT22;9927;47.792;10.616;2022-11-21T09:33:05;6.30;99.90
19561;DHT22;9927;47.792;10.616;2022-11-21T09:35:32;6.30;99.90
19561;DHT22;9927;47.792;10.616;2022-11-21T09:38:00;6.50;99.90
19561;DHT22;9927;47.792;10.616;2022-11-21T09:40:32;6.70;99.90
19561;DHT22;9927;47.792;10.616;2022-11-21T09:48:14;6.80;99.90
19561;DHT22;9927;47.792;10.616;2022-11-21T09:50:47;6.80;99.90
19561;DHT22;9927;47.792;10.616;2022-11-21T09:53:35;6.80;99.90
19561;DHT22;9927;47.792;10.616;2022-11-21T09:56:12;6.60;99.90
19561;DHT22;9927;47.792;10.616;2022-11-21T10:01:14;6.50;99.90
19561;DHT22;9927;47.792;10.616;2022-11-21T10:03:45;6.40;99.90
19561;DHT22;9927;47.792;10.616;2022-11-21T10:06:23;6.10;99.90
19561;DHT22;9927;47.792;10.616;2022-11-21T10:25:26;5.60;99.90
19561;DHT22;9927;47.792;10.616;2022-11-21T10:27:59;5.80;99.90
19561;DHT22;9927;47.792;10.616;2022-11-21T10:30:28;5.70;99.90
19561;DHT22;9927;47.792;10.616;2022-11-21T10:32:59;5.70;99.90
19561;DHT22;9927;47.792;10.616;2022-11-21T10:35:46;5.60;99.90
19561;DHT22;9927;47.792;10.616;2022-11-21T10:38:25;5.70;99.90
19561;DHT22;9927;47.792;10.616;2022-11-21T10:44:00;5.60;99.90
19561;DHT22;9927;47.792;10.616;2022-11-21T10:46:59;5.60;99.90
19561;DHT22;9927;47.792;10.616;2022-11-21T10:49:29;5.70;99.90
19561;DHT22;9927;47.792;10.616;2022-11-21T10:52:15;6.00;99.90
19561;DHT22;9927;47.792;10.616;2022-11-21T10:55:07;5.80;99.90
19561;DHT22;9927;47.792;10.616;2022-11-21T10:57:44;5.80;99.90
19561;DHT22;9927;47.792;10.616;2022-11-21T11:02:40;6.20;99.90
19561;DHT22;9927;47.792;10.616;2022-11-21T11:05:25;6.00;99.90
19561;DHT22;9927;47.792;10.616;2022-11-21T11:10:27;6.20;99.90
19561;DHT22;9927;47.792;10.616;2022-11-21T11:12:55;6.20;99.90
19561;DHT22;9927;47.792;10.616;2022-11-21T11:18:32;6.50;99.90
19561;DHT22;9927;47.792;10.616;2022-11-21T11:21:15;6.20;99.90
19561;DHT22;9927;47.792;10.616;2022-11-21T11:23:44;6.20;99.90
19561;DHT22;9927;47.792;10.616;2022-11-21T11:26:22;6.20;99.90
19561;DHT22;9927;47.792;10.616;2022-11-21T11:28:50;6.30;99.90
19561;DHT22;9927;47.792;10.616;2022-11-21T11:31:17;6.40;99.90
19561;DHT22;9927;47.792;10.616;2022-11-21T11:36:33;6.30;99.90
19561;DHT22;9927;47.792;10.616;2022-11-21T11:39:17;6.40;99.90
19561;DHT22;9927;47.792;10.616;2022-11-21T11:45:15;6.50;99.90
19561;DHT22;9927;47.792;10.616;2022-11-21T11:48:09;6.60;99.90
19561;DHT22;9927;47.792;10.616;2022-11-21T11:50:47;6.50;99.90
19561;DHT22;9927;47.792;10.616;2022-11-21T12:04:14;6.60;99.90
19561;DHT22;9927;47.792;10.616;2022-11-21T12:23:46;7.90;99.90
19561;DHT22;9927;47.792;10.616;2022-11-21T12:37:33;8.10;99.90
19561;DHT22;9927;47.792;10.616;2022-11-21T12:43:26;8.20;99.90
19561;DHT22;9927;47.792;10.616;2022-11-21T12:46:13;7.90;99.90
19561;DHT22;9927;47.792;10.616;2022-11-21T12:48:56;7.80;99.90
19561;DHT22;9927;47.792;10.616;2022-11-21T13:00:16;7.40;99.90
19561;DHT22;9927;47.792;10.616;2022-11-21T13:05:35;7.50;99.90
19561;DHT22;9927;47.792;10.616;2022-11-21T13:08:09;7.60;99.90
19561;DHT22;9927;47.792;10.616;2022-11-21T13:10:47;7.70;99.90
19561;DHT22;9927;47.792;10.616;2022-11-21T13:13:29;7.70;99.90
19561;DHT22;9927;47.792;10.616;2022-11-21T13:16:07;7.70;99.90
19561;DHT22;9927;47.792;10.616;2022-11-21T13:18:42;7.80;99.90
19561;DHT22;9927;47.792;10.616;2022-11-21T13:27:50;7.90;99.90
19561;DHT22;9927;47.792;10.616;2022-11-21T13:30:19;7.90;99.90
19561;DHT22;9927;47.792;10.616;2022-11-21T13:32:53;8.00;99.90
19561;DHT22;9927;47.792;10.616;2022-11-21T13:45:56;8.00;99.90
19561;DHT22;9927;47.792;10.616;2022-11-21T13:51:49;8.00;99.90
19561;DHT22;9927;47.792;10.616;2022-11-21T13:54:45;8.10;99.90
19561;DHT22;9927;47.792;10.616;2022-11-21T13:57:27;8.10;99.90
19561;DHT22;9927;47.792;10.616;2022-11-21T14:08:22;8.00;99.90
19561;DHT22;9927;47.792;10.616;2022-11-21T14:10:51;8.00;99.90
19561;DHT22;9927;47.792;10.616;2022-11-21T14:13:31;7.90;99.90
19561;DHT22;9927;47.792;10.616;2022-11-21T14:18:45;7.70;99.90
19561;DHT22;9927;47.792;10.616;2022-11-21T14:21:22;7.70;99.90
19561;DHT22;9927;47.792;10.616;2022-11-21T14:23:58;7.70;99.90
19561;DHT22;9927;47.792;10.616;2022-11-21T14:26:37;7.70;99.90
19561;DHT22;9927;47.792;10.616;2022-11-21T14:29:37;7.60;99.90
19561;DHT22;9927;47.792;10.616;2022-11-21T14:32:04;7.60;99.90
19561;DHT22;9927;47.792;10.616;2022-11-21T14:34:32;7.50;99.90
19561;DHT22;9927;47.792;10.616;2022-11-21T14:37:02;7.50;99.90
19561;DHT22;9927;47.792;10.616;2022-11-21T14:39:32;7.50;99.90
19561;DHT22;9927;47.792;10.616;2022-11-21T14:42:16;7.40;99.90
19561;DHT22;9927;47.792;10.616;2022-11-21T14:44:43;7.30;99.90
19561;DHT22;9927;47.792;10.616;2022-11-21T14:47:14;7.30;99.90
19561;DHT22;9927;47.792;10.616;2022-11-21T14:49:53;7.20;99.90
19561;DHT22;9927;47.792;10.616;2022-11-21T14:52:26;7.10;99.90
19561;DHT22;9927;47.792;10.616;2022-11-21T14:54:57;7.00;99.90
19561;DHT22;9927;47.792;10.616;2022-11-21T14:57:45;6.90;99.90
19561;DHT22;9927;47.792;10.616;2022-11-21T15:00:19;6.80;99.90
19561;DHT22;9927;47.792;10.616;2022-11-21T15:03:18;6.80;99.90
19561;DHT22;9927;47.792;10.616;2022-11-21T15:05:48;6.70;99.90
19561;DHT22;9927;47.792;10.616;2022-11-21T15:08:35;6.70;99.90
19561;DHT22;9927;47.792;10.616;2022-11-21T15:11:28;6.50;99.90
19561;DHT22;9927;47.792;10.616;2022-11-21T15:14:02;6.40;99.90
19561;DHT22;9927;47.792;10.616;2022-11-21T15:16:45;6.40;99.90
19561;DHT22;9927;47.792;10.616;2022-11-21T15:19:29;6.30;99.90
19561;DHT22;9927;47.792;10.616;2022-11-21T15:22:00;6.20;99.90
19561;DHT22;9927;47.792;10.616;2022-11-21T15:33:08;5.90;99.90
19561;DHT22;9927;47.792;10.616;2022-11-21T15:38:39;5.80;99.90
19561;DHT22;9927;47.792;10.616;2022-11-21T15:43:44;5.50;99.90
19561;DHT22;9927;47.792;10.616;2022-11-21T15:48:49;5.40;99.90
19561;DHT22;9927;47.792;10.616;2022-11-21T15:51:25;5.30;99.90
19561;DHT22;9927;47.792;10.616;2022-11-21T15:54:14;5.30;99.90
19561;DHT22;9927;47.792;10.616;2022-11-21T15:56:42;5.20;99.90
19561;DHT22;9927;47.792;10.616;2022-11-21T15:59:09;5.10;99.90
19561;DHT22;9927;47.792;10.616;2022-11-21T16:01:37;5.00;99.90
19561;DHT22;9927;47.792;10.616;2022-11-21T16:04:07;4.90;99.90
19561;DHT22;9927;47.792;10.616;2022-11-21T16:06:34;4.90;99.90
19561;DHT22;9927;47.792;10.616;2022-11-21T16:09:02;4.80;99.90
19561;DHT22;9927;47.792;10.616;2022-11-21T16:11:34;4.70;99.90
19561;DHT22;9927;47.792;10.616;2022-11-21T16:14:04;4.60;99.90
19561;DHT22;9927;47.792;10.616;2022-11-21T16:16:36;4.70;99.90
19561;DHT22;9927;47.792;10.616;2022-11-21T16:19:10;4.70;99.90
19561;DHT22;9927;47.792;10.616;2022-11-21T16:21:38;4.70;99.90
19561;DHT22;9927;47.792;10.616;2022-11-21T16:24:05;4.70;99.90
19561;DHT22;9927;47.792;10.616;2022-11-21T16:26:33;4.60;99.90
19561;DHT22;9927;47.792;10.616;2022-11-21T16:29:01;4.60;99.90
19561;DHT22;9927;47.792;10.616;2022-11-21T16:31:32;4.60;99.90
19561;DHT22;9927;47.792;10.616;2022-11-21T16:33:59;4.60;99.90
19561;DHT22;9927;47.792;10.616;2022-11-21T16:36:28;4.50;99.90
19561;DHT22;9927;47.792;10.616;2022-11-21T16:38:56;4.60;99.90
19561;DHT22;9927;47.792;10.616;2022-11-21T16:41:31;4.50;99.90
19561;DHT22;9927;47.792;10.616;2022-11-21T16:43:58;4.50;99.90
19561;DHT22;9927;47.792;10.616;2022-11-21T16:46:25;4.50;99.90
19561;DHT22;9927;47.792;10.616;2022-11-21T16:49:02;4.50;99.90
19561;DHT22;9927;47.792;10.616;2022-11-21T16:51:29;4.70;99.90
19561;DHT22;9927;47.792;10.616;2022-11-21T16:53:57;4.70;99.90
19561;DHT22;9927;47.792;10.616;2022-11-21T16:56:31;4.70;99.90
19561;DHT22;9927;47.792;10.616;2022-11-21T16:58:58;4.70;99.90
19561;DHT22;9927;47.792;10.616;2022-11-21T17:01:26;4.70;99.90
19561;DHT22;9927;47.792;10.616;2022-11-21T17:03:54;4.70;99.90
19561;DHT22;9927;47.792;10.616;2022-11-21T17:06:24;4.70;99.90
19561;DHT22;9927;47.792;10.616;2022-11-21T17:08:53;4.80;99.90
19561;DHT22;9927;47.792;10.616;2022-11-21T17:11:24;4.80;99.90
19561;DHT22;9927;47.792;10.616;2022-11-21T17:14:00;4.80;99.90
19561;DHT22;9927;47.792;10.616;2022-11-21T17:16:28;4.80;99.90
19561;DHT22;9927;47.792;10.616;2022-11-21T17:18:58;4.70;99.90
19561;DHT22;9927;47.792;10.616;2022-11-21T17:21:27;4.70;99.90
19561;DHT22;9927;47.792;10.616;2022-11-21T17:23:54;4.80;99.90
19561;DHT22;9927;47.792;10.616;2022-11-21T17:26:23;4.70;99.90
19561;DHT22;9927;47.792;10.616;2022-11-21T17:28:52;4.70;99.90
19561;DHT22;9927;47.792;10.616;2022-11-21T17:31:19;4.60;99.90
19561;DHT22;9927;47.792;10.616;2022-11-21T17:33:47;4.60;99.90
19561;DHT22;9927;47.792;10.616;2022-11-21T17:36:20;4.60;99.90
19561;DHT22;9927;47.792;10.616;2022-11-21T17:38:47;4.50;99.90
19561;DHT22;9927;47.792;10.616;2022-11-21T17:41:17;4.50;99.90
19561;DHT22;9927;47.792;10.616;2022-11-21T17:43:44;4.40;99.90
19561;DHT22;9927;47.792;10.616;2022-11-21T17:46:17;4.40;99.90
19561;DHT22;9927;47.792;10.616;2022-11-21T17:48:46;4.30;99.90
19561;DHT22;9927;47.792;10.616;2022-11-21T17:51:29;4.30;99.90
19561;DHT22;9927;47.792;10.616;2022-11-21T17:54:00;4.30;99.90
19561;DHT22;9927;47.792;10.616;2022-11-21T17:56:29;4.30;99.90
19561;DHT22;9927;47.792;10.616;2022-11-21T17:58:56;4.30;99.90
19561;DHT22;9927;47.792;10.616;2022-11-21T18:01:24;4.40;99.90
19561;DHT22;9927;47.792;10.616;2022-11-21T18:06:26;4.40;99.90
19561;DHT22;9927;47.792;10.616;2022-11-21T18:08:55;4.40;99.90
19561;DHT22;9927;47.792;10.616;2022-11-21T18:11:30;4.50;99.90
19561;DHT22;9927;47.792;10.616;2022-11-21T18:14:05;4.60;99.90
19561;DHT22;9927;47.792;10.616;2022-11-21T18:16:33;4.60;99.90
19561;DHT22;9927;47.792;10.616;2022-11-21T18:19:00;4.60;99.90
19561;DHT22;9927;47.792;10.616;2022-11-21T18:21:30;4.70;99.90
19561;DHT22;9927;47.792;10.616;2022-11-21T18:23:58;4.70;99.90
19561;DHT22;9927;47.792;10.616;2022-11-21T18:26:30;4.70;99.90
19561;DHT22;9927;47.792;10.616;2022-11-21T18:29:00;4.70;99.90
19561;DHT22;9927;47.792;10.616;2022-11-21T18:31:48;4.70;99.90
19561;DHT22;9927;47.792;10.616;2022-11-21T18:34:15;4.70;99.90
19561;DHT22;9927;47.792;10.616;2022-11-21T18:36:42;4.70;99.90
19561;DHT22;9927;47.792;10.616;2022-11-21T18:39:09;4.70;99.90
19561;DHT22;9927;47.792;10.616;2022-11-21T18:41:41;4.70;99.90
19561;DHT22;9927;47.792;10.616;2022-11-21T18:44:08;4.70;99.90
19561;DHT22;9927;47.792;10.616;2022-11-21T18:46:36;4.60;99.90
19561;DHT22;9927;47.792;10.616;2022-11-21T18:49:04;4.50;99.90
19561;DHT22;9927;47.792;10.616;2022-11-21T18:51:35;4.40;99.90
19561;DHT22;9927;47.792;10.616;2022-11-21T18:54:05;4.40;99.90
19561;DHT22;9927;47.792;10.616;2022-11-21T18:56:38;4.40;99.90
19561;DHT22;9927;47.792;10.616;2022-11-21T18:59:06;4.40;99.90
19561;DHT22;9927;47.792;10.616;2022-11-21T19:01:34;4.40;99.90
19561;DHT22;9927;47.792;10.616;2022-11-21T19:04:02;4.40;99.90
19561;DHT22;9927;47.792;10.616;2022-11-21T19:06:30;4.40;99.90
19561;DHT22;9927;47.792;10.616;2022-11-21T19:08:58;4.40;99.90
19561;DHT22;9927;47.792;10.616;2022-11-21T19:11:27;4.30;99.90
19561;DHT22;9927;47.792;10.616;2022-11-21T19:13:56;4.30;99.90
19561;DHT22;9927;47.792;10.616;2022-11-21T19:16:25;4.20;99.90
19561;DHT22;9927;47.792;10.616;2022-11-21T19:18:53;4.30;99.90
19561;DHT22;9927;47.792;10.616;2022-11-21T19:21:41;4.30;99.90
19561;DHT22;9927;47.792;10.616;2022-11-21T19:24:10;4.40;99.90
19561;DHT22;9927;47.792;10.616;2022-11-21T19:26:42;4.30;99.90
19561;DHT22;9927;47.792;10.616;2022-11-21T19:29:09;4.30;99.90
19561;DHT22;9927;47.792;10.616;2022-11-21T19:31:37;4.30;99.90
19561;DHT22;9927;47.792;10.616;2022-11-21T19:34:14;4.20;99.90
19561;DHT22;9927;47.792;10.616;2022-11-21T19:36:42;4.30;99.90
19561;DHT22;9927;47.792;10.616;2022-11-21T19:39:09;4.20;99.90
19561;DHT22;9927;47.792;10.616;2022-11-21T19:41:37;4.20;99.90
19561;DHT22;9927;47.792;10.616;2022-11-21T19:44:04;4.20;99.90
19561;DHT22;9927;47.792;10.616;2022-11-21T19:46:35;4.20;99.90
19561;DHT22;9927;47.792;10.616;2022-11-21T19:49:03;4.20;99.90
19561;DHT22;9927;47.792;10.616;2022-11-21T19:51:34;4.10;99.90
19561;DHT22;9927;47.792;10.616;2022-11-21T19:54:05;4.00;99.90
19561;DHT22;9927;47.792;10.616;2022-11-21T19:56:33;4.00;99.90
19561;DHT22;9927;47.792;10.616;2022-11-21T19:59:01;4.00;99.90
19561;DHT22;9927;47.792;10.616;2022-11-21T20:01:30;4.10;99.90
19561;DHT22;9927;47.792;10.616;2022-11-21T20:03:59;4.20;99.90
19561;DHT22;9927;47.792;10.616;2022-11-21T20:09:08;4.20;99.90
19561;DHT22;9927;47.792;10.616;2022-11-21T20:11:38;4.10;99.90
19561;DHT22;9927;47.792;10.616;2022-11-21T20:14:06;4.20;99.90
19561;DHT22;9927;47.792;10.616;2022-11-21T20:16:39;4.30;99.90
19561;DHT22;9927;47.792;10.616;2022-11-21T20:19:12;4.30;99.90
19561;DHT22;9927;47.792;10.616;2022-11-21T20:21:41;4.30;99.90
19561;DHT22;9927;47.792;10.616;2022-11-21T20:24:09;4.30;99.90
19561;DHT22;9927;47.792;10.616;2022-11-21T20:26:38;4.30;99.90
19561;DHT22;9927;47.792;10.616;2022-11-21T20:29:05;4.20;99.90
19561;DHT22;9927;47.792;10.616;2022-11-21T20:31:35;4.10;99.90
19561;DHT22;9927;47.792;10.616;2022-11-21T20:34:05;4.10;99.90
19561;DHT22;9927;47.792;10.616;2022-11-21T20:36:34;4.10;99.90
19561;DHT22;9927;47.792;10.616;2022-11-21T20:39:08;4.20;99.90
19561;DHT22;9927;47.792;10.616;2022-11-21T20:41:39;4.30;99.90
19561;DHT22;9927;47.792;10.616;2022-11-21T20:44:12;4.30;99.90
19561;DHT22;9927;47.792;10.616;2022-11-21T20:47:00;4.30;99.90
19561;DHT22;9927;47.792;10.616;2022-11-21T20:49:27;4.30;99.90
19561;DHT22;9927;47.792;10.616;2022-11-21T20:51:55;4.30;99.90
19561;DHT22;9927;47.792;10.616;2022-11-21T20:54:42;4.20;99.90
19561;DHT22;9927;47.792;10.616;2022-11-21T20:57:09;4.00;99.90
19561;DHT22;9927;47.792;10.616;2022-11-21T20:59:41;4.00;99.90
19561;DHT22;9927;47.792;10.616;2022-11-21T21:02:09;4.00;99.90
19561;DHT22;9927;47.792;10.616;2022-11-21T21:04:40;3.90;99.90
19561;DHT22;9927;47.792;10.616;2022-11-21T21:07:08;4.00;99.90
19561;DHT22;9927;47.792;10.616;2022-11-21T21:09:35;4.10;99.90
19561;DHT22;9927;47.792;10.616;2022-11-21T21:12:03;4.10;99.90
19561;DHT22;9927;47.792;10.616;2022-11-21T21:14:31;4.20;99.90
19561;DHT22;9927;47.792;10.616;2022-11-21T21:16:58;4.30;99.90
19561;DHT22;9927;47.792;10.616;2022-11-21T21:19:26;4.30;99.90
19561;DHT22;9927;47.792;10.616;2022-11-21T21:21:55;4.00;99.90
19561;DHT22;9927;47.792;10.616;2022-11-21T21:24:22;4.10;99.90
19561;DHT22;9927;47.792;10.616;2022-11-21T21:26:50;4.20;99.90
19561;DHT22;9927;47.792;10.616;2022-11-21T21:29:19;4.10;99.90
19561;DHT22;9927;47.792;10.616;2022-11-21T21:31:46;4.20;99.90
19561;DHT22;9927;47.792;10.616;2022-11-21T21:34:19;4.20;99.90
19561;DHT22;9927;47.792;10.616;2022-11-21T21:36:47;4.30;99.90
19561;DHT22;9927;47.792;10.616;2022-11-21T21:39:14;4.30;99.90
19561;DHT22;9927;47.792;10.616;2022-11-21T21:41:41;4.10;99.90
19561;DHT22;9927;47.792;10.616;2022-11-21T21:44:14;4.00;99.90
19561;DHT22;9927;47.792;10.616;2022-11-21T21:46:41;4.20;99.90
19561;DHT22;9927;47.792;10.616;2022-11-21T21:49:08;4.20;99.90
19561;DHT22;9927;47.792;10.616;2022-11-21T21:51:36;4.30;99.90
19561;DHT22;9927;47.792;10.616;2022-11-21T21:54:04;4.30;99.90
19561;DHT22;9927;47.792;10.616;2022-11-21T21:56:32;4.30;99.90
19561;DHT22;9927;47.792;10.616;2022-11-21T21:59:00;4.50;99.90
